Terminal Aerodrome Forecast
Issued by NWS

Home | Current Version | Previous Version | Text Only | Print | Product List | Glossary On
Versions: 1 2 3 4 5 6 7 8 9 10 11 12 13 14 15
450
FTPA31 PHFO 180535
TAFHLI
TAF
PHLI 180535Z 1806/1906 32008KT P6SM VCSH SCT025 SCT040
      TEMPO 1806/1807 4SM SHRA BR BKN025 BKN040
     FM182000 02012KT P6SM SCT025 BKN045
     FM190200 34008KT P6SM VCSH SCT025 OVC045=

USA.gov is the U.S. government's official web portal to all federal, state and local government web resources and services.